createdAt,value
2022-12-25T00:00:24.013Z,18.95
2022-12-25T00:00:55.538Z,18.94
2022-12-25T00:01:26.988Z,18.94
2022-12-25T00:01:58.416Z,18.94
2022-12-25T00:02:29.950Z,18.93
2022-12-25T00:03:01.509Z,18.93
2022-12-25T00:03:33.086Z,18.93
2022-12-25T00:04:04.621Z,18.92
2022-12-25T00:04:36.066Z,18.90
2022-12-25T00:05:07.467Z,18.90
2022-12-25T00:05:38.983Z,18.89
2022-12-25T00:06:10.434Z,18.90
2022-12-25T00:06:41.841Z,18.90
2022-12-25T00:07:13.240Z,18.88
2022-12-25T00:07:44.652Z,18.89
2022-12-25T00:08:16.062Z,18.88
2022-12-25T00:08:47.451Z,18.89
2022-12-25T00:09:18.871Z,18.88
2022-12-25T00:09:50.281Z,18.88
2022-12-25T00:10:21.707Z,18.88
2022-12-25T00:10:53.119Z,18.88
2022-12-25T00:11:24.518Z,18.88
2022-12-25T00:11:55.921Z,18.86
2022-12-25T00:12:27.319Z,18.86
2022-12-25T00:12:58.727Z,18.85
2022-12-25T00:13:30.135Z,18.84
2022-12-25T00:14:01.548Z,18.82
2022-12-25T00:14:32.952Z,18.83
2022-12-25T00:15:04.355Z,18.85
2022-12-25T00:15:35.763Z,18.85
2022-12-25T00:16:07.308Z,18.83
2022-12-25T00:16:38.766Z,18.84
2022-12-25T00:17:10.185Z,18.84
2022-12-25T00:17:41.606Z,18.84
2022-12-25T00:18:13.009Z,18.83
2022-12-25T00:18:44.435Z,18.85
2022-12-25T00:19:15.855Z,18.83
2022-12-25T00:19:47.253Z,18.83
2022-12-25T00:20:18.653Z,18.81
2022-12-25T00:20:50.058Z,18.83
2022-12-25T00:21:21.568Z,18.82
2022-12-25T00:21:52.990Z,18.82
2022-12-25T00:22:24.399Z,18.83
2022-12-25T00:22:55.789Z,18.80
2022-12-25T00:23:27.200Z,18.81
2022-12-25T00:23:58.668Z,18.80
2022-12-25T00:24:30.085Z,18.81
2022-12-25T00:25:01.486Z,18.79
2022-12-25T00:25:32.893Z,18.79
2022-12-25T00:26:04.312Z,18.77
2022-12-25T00:26:35.746Z,18.78
2022-12-25T00:27:07.140Z,18.78
2022-12-25T00:27:38.562Z,18.78
2022-12-25T00:28:10.003Z,18.78
2022-12-25T00:28:41.417Z,18.78
2022-12-25T00:29:12.813Z,18.78
2022-12-25T00:29:44.230Z,18.76
2022-12-25T00:30:15.652Z,18.77
2022-12-25T00:30:47.064Z,18.77
2022-12-25T00:31:18.550Z,18.74
2022-12-25T00:31:50.176Z,18.74
2022-12-25T00:32:21.675Z,18.74
2022-12-25T00:32:53.096Z,18.74
2022-12-25T00:33:24.495Z,18.74
2022-12-25T00:33:55.898Z,18.74
2022-12-25T00:34:27.340Z,18.74
2022-12-25T00:34:58.754Z,18.72
2022-12-25T00:35:30.149Z,18.72
2022-12-25T00:36:01.565Z,18.72
2022-12-25T00:36:39.512Z,18.72
2022-12-25T00:37:12.984Z,18.72
2022-12-25T00:37:44.382Z,18.72
2022-12-25T00:38:15.794Z,18.72
2022-12-25T00:38:47.231Z,18.71
2022-12-25T00:39:18.641Z,18.71
2022-12-25T00:39:50.056Z,18.70
2022-12-25T00:40:21.480Z,18.70
2022-12-25T00:40:52.949Z,18.69
2022-12-25T00:41:24.373Z,18.69
2022-12-25T00:41:55.783Z,18.69
2022-12-25T00:42:27.311Z,18.69
2022-12-25T00:42:58.728Z,18.68
2022-12-25T00:43:30.152Z,18.68
2022-12-25T00:44:01.547Z,18.68
2022-12-25T00:44:32.965Z,18.69
2022-12-25T00:45:04.354Z,18.68
2022-12-25T00:45:35.788Z,18.67
2022-12-25T00:46:07.274Z,18.65
2022-12-25T00:46:38.762Z,18.66
2022-12-25T00:47:10.201Z,18.66
2022-12-25T00:47:41.680Z,18.66
2022-12-25T00:48:13.092Z,18.65
2022-12-25T00:48:44.504Z,18.64
2022-12-25T00:49:15.908Z,18.64
2022-12-25T00:49:47.373Z,18.65
2022-12-25T00:50:18.801Z,18.63
2022-12-25T00:50:50.203Z,18.64
2022-12-25T00:51:21.604Z,18.64
2022-12-25T00:51:53.011Z,18.63
2022-12-25T00:52:24.415Z,18.63
2022-12-25T00:52:55.870Z,18.61
2022-12-25T00:53:27.268Z,18.60
2022-12-25T00:53:58.703Z,18.62
2022-12-25T00:54:30.133Z,18.61
2022-12-25T00:55:01.545Z,18.61
2022-12-25T00:55:32.958Z,18.62
2022-12-25T00:56:04.358Z,18.61
2022-12-25T00:56:35.767Z,18.60
2022-12-25T00:57:07.172Z,18.61
2022-12-25T00:57:38.584Z,18.61
2022-12-25T00:58:10.104Z,18.61
2022-12-25T00:58:41.562Z,18.60
2022-12-25T00:59:12.958Z,18.59
2022-12-25T00:59:44.359Z,18.58
2022-12-25T01:00:15.762Z,18.58
2022-12-25T01:00:47.189Z,18.58
2022-12-25T01:01:18.772Z,18.57
2022-12-25T01:01:50.452Z,18.56
2022-12-25T01:02:22.121Z,18.55
2022-12-25T01:02:53.851Z,18.50
2022-12-25T01:03:25.582Z,18.53
2022-12-25T01:03:57.036Z,18.54
2022-12-25T01:04:28.438Z,18.55
2022-12-25T01:04:59.847Z,18.53
2022-12-25T01:05:31.263Z,18.54
2022-12-25T01:06:02.673Z,18.53
2022-12-25T01:06:34.091Z,18.52
2022-12-25T01:07:05.498Z,18.49
2022-12-25T01:07:36.995Z,18.51
2022-12-25T01:08:08.409Z,18.52
2022-12-25T01:08:39.876Z,18.50
2022-12-25T01:09:11.279Z,18.51
2022-12-25T01:09:42.683Z,18.52
2022-12-25T01:10:14.102Z,18.51
2022-12-25T01:10:45.502Z,18.49
2022-12-25T01:11:16.894Z,18.49
2022-12-25T01:11:48.327Z,18.48
2022-12-25T01:12:19.751Z,18.49
2022-12-25T01:12:51.171Z,18.49
2022-12-25T01:13:22.575Z,18.48
2022-12-25T01:13:54.125Z,18.48
2022-12-25T01:14:25.543Z,18.43
2022-12-25T01:14:56.908Z,18.46
2022-12-25T01:15:28.317Z,18.45
2022-12-25T01:15:59.748Z,18.45
2022-12-25T01:16:31.706Z,18.46
2022-12-25T01:17:03.162Z,18.45
2022-12-25T01:17:34.553Z,18.46
2022-12-25T01:18:08.014Z,18.45
2022-12-25T01:18:40.622Z,18.43
2022-12-25T01:19:12.201Z,18.44
2022-12-25T01:19:43.591Z,18.42
2022-12-25T01:20:15.004Z,18.44
2022-12-25T01:20:46.423Z,18.41
2022-12-25T01:21:17.835Z,18.43
2022-12-25T01:21:49.232Z,18.42
2022-12-25T01:22:20.629Z,18.42
2022-12-25T01:22:52.046Z,18.43
2022-12-25T01:23:23.470Z,18.41
2022-12-25T01:23:54.890Z,18.41
2022-12-25T01:24:26.342Z,18.40
2022-12-25T01:24:57.732Z,18.40
2022-12-25T01:25:29.121Z,18.40
2022-12-25T01:26:00.531Z,18.39
2022-12-25T01:26:31.952Z,18.40
2022-12-25T01:27:03.348Z,18.39
2022-12-25T01:27:34.751Z,18.39
2022-12-25T01:28:06.171Z,18.39
2022-12-25T01:28:37.623Z,18.37
2022-12-25T01:29:09.020Z,18.38
2022-12-25T01:29:40.517Z,18.39
2022-12-25T01:30:11.988Z,18.37
2022-12-25T01:30:43.483Z,18.37
2022-12-25T01:31:15.014Z,18.36
2022-12-25T01:31:46.581Z,18.38
2022-12-25T01:32:18.040Z,18.36
2022-12-25T01:32:49.472Z,18.36
2022-12-25T01:33:20.899Z,18.35
2022-12-25T01:33:52.316Z,18.35
2022-12-25T01:34:23.723Z,18.34
2022-12-25T01:34:56.414Z,18.34
2022-12-25T01:35:27.940Z,18.35
2022-12-25T01:35:59.390Z,18.32
2022-12-25T01:36:30.803Z,18.31
2022-12-25T01:37:02.232Z,18.32
2022-12-25T01:37:33.633Z,18.32
2022-12-25T01:38:05.035Z,18.31
2022-12-25T01:38:36.437Z,18.31
2022-12-25T01:39:07.848Z,18.33
2022-12-25T01:39:39.320Z,18.33
2022-12-25T01:40:10.786Z,18.31
2022-12-25T01:40:42.202Z,18.31
2022-12-25T01:41:13.626Z,18.30
2022-12-25T01:41:45.034Z,18.30
2022-12-25T01:42:16.458Z,18.30
2022-12-25T01:42:47.885Z,18.30
2022-12-25T01:43:19.303Z,18.29
2022-12-25T01:43:50.744Z,18.29
2022-12-25T01:44:22.136Z,18.29
2022-12-25T01:44:53.557Z,18.29
2022-12-25T01:45:25.062Z,18.27
2022-12-25T01:45:56.553Z,18.26
2022-12-25T01:46:28.022Z,18.27
2022-12-25T01:46:59.431Z,18.26
2022-12-25T01:47:30.869Z,18.25
2022-12-25T01:48:02.283Z,18.26
2022-12-25T01:48:33.699Z,18.26
2022-12-25T01:49:05.106Z,18.26
2022-12-25T01:49:36.516Z,18.26
2022-12-25T01:50:07.916Z,18.25
2022-12-25T01:50:39.408Z,18.25
2022-12-25T01:51:10.809Z,18.26
2022-12-25T01:51:42.222Z,18.25
2022-12-25T01:52:14.911Z,18.25
2022-12-25T01:52:47.883Z,18.25
2022-12-25T01:53:19.294Z,18.24
2022-12-25T01:53:50.756Z,18.23
2022-12-25T01:54:22.208Z,18.23
2022-12-25T01:54:53.711Z,18.22
2022-12-25T01:55:25.122Z,18.22
2022-12-25T01:55:56.635Z,18.22
2022-12-25T01:56:28.056Z,18.22
2022-12-25T01:56:59.454Z,18.19
2022-12-25T01:57:30.855Z,18.20
2022-12-25T01:58:02.265Z,18.19
2022-12-25T01:58:33.660Z,18.19
2022-12-25T01:59:05.093Z,18.19
2022-12-25T01:59:36.519Z,18.20
2022-12-25T02:00:07.917Z,18.20
2022-12-25T02:00:39.382Z,18.19
2022-12-25T02:01:11.037Z,18.17
2022-12-25T02:01:42.652Z,18.19
2022-12-25T02:02:14.249Z,18.19
2022-12-25T02:02:45.915Z,18.17
2022-12-25T02:03:17.469Z,18.15
2022-12-25T02:03:48.961Z,18.16
2022-12-25T02:04:20.384Z,18.15
2022-12-25T02:04:51.807Z,18.15
2022-12-25T02:05:23.233Z,18.15
2022-12-25T02:05:54.667Z,18.14
2022-12-25T02:06:26.190Z,18.15
2022-12-25T02:06:57.589Z,18.15
2022-12-25T02:07:28.987Z,18.15
2022-12-25T02:08:00.381Z,18.14
2022-12-25T02:08:31.779Z,18.12
2022-12-25T02:09:03.194Z,18.13
2022-12-25T02:09:34.589Z,18.12
2022-12-25T02:10:05.987Z,18.11
2022-12-25T02:10:37.419Z,18.12
2022-12-25T02:11:08.826Z,18.12
2022-12-25T02:11:40.357Z,18.10
2022-12-25T02:12:11.784Z,18.08
2022-12-25T02:12:43.175Z,18.09
2022-12-25T02:13:14.565Z,18.09
2022-12-25T02:13:45.959Z,18.06
2022-12-25T02:14:17.355Z,18.08
2022-12-25T02:14:48.825Z,18.07
2022-12-25T02:15:20.215Z,18.08
2022-12-25T02:15:51.615Z,18.09
2022-12-25T02:16:23.141Z,18.08
2022-12-25T02:16:57.652Z,18.07
2022-12-25T02:17:30.403Z,18.06
2022-12-25T02:18:01.804Z,18.05
2022-12-25T02:18:33.216Z,18.04
2022-12-25T02:19:04.634Z,18.04
2022-12-25T02:19:36.051Z,18.05
2022-12-25T02:20:07.458Z,18.04
2022-12-25T02:20:38.845Z,18.03
2022-12-25T02:21:10.267Z,18.03
2022-12-25T02:21:41.764Z,18.02
2022-12-25T02:22:13.289Z,18.02
2022-12-25T02:22:44.692Z,18.01
2022-12-25T02:23:16.093Z,18.01
2022-12-25T02:23:47.494Z,18.02
2022-12-25T02:24:18.894Z,18.01
2022-12-25T02:24:50.289Z,18.01
2022-12-25T02:25:21.707Z,17.98
2022-12-25T02:25:53.107Z,17.98
2022-12-25T02:26:24.494Z,17.98
2022-12-25T02:26:55.940Z,17.99
2022-12-25T02:27:27.437Z,17.97
2022-12-25T02:27:58.853Z,17.98
2022-12-25T02:28:30.266Z,17.98
2022-12-25T02:29:01.718Z,17.98
2022-12-25T02:29:33.123Z,17.98
2022-12-25T02:30:04.528Z,17.99
2022-12-25T02:30:35.955Z,17.98
2022-12-25T02:31:07.363Z,17.97
2022-12-25T02:31:38.797Z,17.96
2022-12-25T02:32:10.249Z,17.95
2022-12-25T02:32:41.830Z,17.96
2022-12-25T02:33:13.226Z,17.98
2022-12-25T02:33:44.648Z,17.98
2022-12-25T02:34:16.043Z,17.96
2022-12-25T02:34:47.478Z,17.96
2022-12-25T02:35:18.923Z,17.96
2022-12-25T02:35:50.313Z,17.96
2022-12-25T02:36:21.716Z,17.94
2022-12-25T02:36:53.132Z,17.94
2022-12-25T02:37:24.534Z,17.94
2022-12-25T02:37:56.085Z,17.95
2022-12-25T02:38:27.474Z,17.94
2022-12-25T02:38:58.871Z,17.94
2022-12-25T02:39:30.265Z,17.95
2022-12-25T02:40:01.687Z,17.92
2022-12-25T02:40:33.080Z,17.93
2022-12-25T02:41:04.475Z,17.91
2022-12-25T02:41:35.898Z,17.91
2022-12-25T02:42:07.297Z,17.92
2022-12-25T02:42:38.705Z,17.93
2022-12-25T02:43:10.152Z,17.93
2022-12-25T02:43:41.546Z,17.93
2022-12-25T02:44:12.946Z,17.90
2022-12-25T02:44:44.372Z,17.92
2022-12-25T02:45:15.779Z,17.92
2022-12-25T02:45:47.343Z,17.92
2022-12-25T02:46:18.890Z,17.91
2022-12-25T02:46:50.379Z,17.92
2022-12-25T02:47:21.787Z,17.90
2022-12-25T02:47:53.206Z,17.91
2022-12-25T02:48:24.642Z,17.90
2022-12-25T02:48:56.084Z,17.90
2022-12-25T02:49:27.496Z,17.87
2022-12-25T02:49:58.907Z,17.87
2022-12-25T02:50:30.318Z,17.89
2022-12-25T02:51:01.731Z,17.89
2022-12-25T02:51:33.163Z,17.88
2022-12-25T02:52:04.573Z,17.86
2022-12-25T02:52:36.021Z,17.88
2022-12-25T02:53:07.447Z,17.89
2022-12-25T02:53:39.000Z,17.87
2022-12-25T02:54:10.418Z,17.87
2022-12-25T02:54:41.830Z,17.88
2022-12-25T02:55:13.230Z,17.88
2022-12-25T02:55:44.641Z,17.88
2022-12-25T02:56:16.107Z,17.87
2022-12-25T02:56:47.510Z,17.87
2022-12-25T02:57:18.961Z,17.86
2022-12-25T02:57:50.355Z,17.86
2022-12-25T02:58:21.750Z,17.86
2022-12-25T02:58:53.239Z,17.85
2022-12-25T02:59:24.634Z,17.85
2022-12-25T02:59:56.050Z,17.84
2022-12-25T03:00:27.465Z,17.83
2022-12-25T03:00:58.944Z,17.84
2022-12-25T03:01:30.576Z,17.83
2022-12-25T03:02:02.176Z,17.84
2022-12-25T03:02:33.725Z,17.84
2022-12-25T03:03:05.438Z,17.82
2022-12-25T03:03:36.979Z,17.83
2022-12-25T03:04:08.529Z,17.82
2022-12-25T03:04:39.928Z,17.82
2022-12-25T03:05:11.364Z,17.82
2022-12-25T03:05:42.795Z,17.83
2022-12-25T03:06:14.214Z,17.82
2022-12-25T03:06:45.646Z,17.80
2022-12-25T03:07:17.079Z,17.81
2022-12-25T03:07:48.511Z,17.81
2022-12-25T03:08:19.926Z,17.80
2022-12-25T03:08:51.335Z,17.81
2022-12-25T03:09:22.792Z,17.81
2022-12-25T03:09:54.195Z,17.79
2022-12-25T03:10:25.593Z,17.80
2022-12-25T03:10:56.992Z,17.80
2022-12-25T03:11:28.479Z,17.79
2022-12-25T03:11:59.894Z,17.78
2022-12-25T03:12:31.293Z,17.77
2022-12-25T03:13:02.706Z,17.78
2022-12-25T03:13:34.103Z,17.76
2022-12-25T03:14:05.495Z,17.77
2022-12-25T03:14:36.968Z,17.78
2022-12-25T03:15:08.378Z,17.77
2022-12-25T03:15:39.796Z,17.77
2022-12-25T03:16:11.249Z,17.78
2022-12-25T03:16:42.705Z,17.78
2022-12-25T03:17:14.214Z,17.77
2022-12-25T03:17:45.710Z,17.77
2022-12-25T03:18:17.113Z,17.76
2022-12-25T03:18:48.519Z,17.77
2022-12-25T03:19:19.911Z,17.75
2022-12-25T03:19:51.346Z,17.76
2022-12-25T03:20:22.745Z,17.75
2022-12-25T03:20:54.145Z,17.76
2022-12-25T03:21:25.545Z,17.75
2022-12-25T03:21:56.948Z,17.76
2022-12-25T03:22:28.361Z,17.75
2022-12-25T03:22:59.757Z,17.75
2022-12-25T03:23:31.161Z,17.75
2022-12-25T03:24:02.559Z,17.74
2022-12-25T03:24:33.970Z,17.72
2022-12-25T03:25:05.423Z,17.71
2022-12-25T03:25:36.823Z,17.71
2022-12-25T03:26:08.242Z,17.71
2022-12-25T03:26:39.643Z,17.72
2022-12-25T03:27:11.058Z,17.72
2022-12-25T03:27:42.478Z,17.72
2022-12-25T03:28:13.875Z,17.71
2022-12-25T03:28:45.313Z,17.71
2022-12-25T03:29:16.722Z,17.70
2022-12-25T03:29:48.126Z,17.69
2022-12-25T03:30:19.651Z,17.71
2022-12-25T03:30:51.074Z,17.70
2022-12-25T03:31:22.553Z,17.70
2022-12-25T03:31:53.997Z,17.71
2022-12-25T03:32:25.404Z,17.70
2022-12-25T03:32:56.792Z,17.70
2022-12-25T03:33:45.331Z,17.68
2022-12-25T03:34:17.160Z,17.68
2022-12-25T03:34:48.589Z,17.69
2022-12-25T03:35:20.087Z,17.68
2022-12-25T03:35:51.491Z,17.68
2022-12-25T03:36:22.905Z,17.68
2022-12-25T03:36:54.323Z,17.67
2022-12-25T03:37:25.713Z,17.67
2022-12-25T03:37:57.107Z,17.67
2022-12-25T03:38:28.525Z,17.67
2022-12-25T03:38:59.921Z,17.66
2022-12-25T03:39:31.347Z,17.67
2022-12-25T03:40:02.766Z,17.65
2022-12-25T03:40:34.181Z,17.66
2022-12-25T03:41:05.588Z,17.65
2022-12-25T03:41:37.014Z,17.63
2022-12-25T03:42:08.434Z,17.64
2022-12-25T03:42:39.827Z,17.63
2022-12-25T03:43:11.332Z,17.63
2022-12-25T03:43:42.731Z,17.62
2022-12-25T03:44:14.131Z,17.63
2022-12-25T03:44:45.558Z,17.64
2022-12-25T03:45:16.965Z,17.63
2022-12-25T03:45:48.421Z,17.63
2022-12-25T03:46:19.890Z,17.63
2022-12-25T03:46:51.330Z,17.63
2022-12-25T03:47:22.735Z,17.62
2022-12-25T03:47:54.133Z,17.62
2022-12-25T03:48:25.525Z,17.61
2022-12-25T03:48:56.922Z,17.61
2022-12-25T03:49:28.322Z,17.61
2022-12-25T03:49:59.738Z,17.60
2022-12-25T03:50:31.142Z,17.60
2022-12-25T03:51:02.670Z,17.61
2022-12-25T03:51:34.064Z,17.59
2022-12-25T03:52:05.478Z,17.60
2022-12-25T03:52:36.902Z,17.60
2022-12-25T03:53:08.321Z,17.58
2022-12-25T03:53:39.723Z,17.57
2022-12-25T03:54:11.127Z,17.58
2022-12-25T03:54:42.543Z,17.57
2022-12-25T03:55:13.951Z,17.58
2022-12-25T03:55:45.369Z,17.58
2022-12-25T03:56:16.833Z,17.57
2022-12-25T03:56:48.235Z,17.58
2022-12-25T03:57:19.640Z,17.57
2022-12-25T03:57:51.034Z,17.56
2022-12-25T03:58:22.427Z,17.54
2022-12-25T03:58:53.842Z,17.56
2022-12-25T03:59:25.250Z,17.55
2022-12-25T03:59:56.638Z,17.54
2022-12-25T04:00:28.049Z,17.54
2022-12-25T04:00:59.451Z,17.54
2022-12-25T04:01:31.100Z,17.55
2022-12-25T04:02:02.680Z,17.55
2022-12-25T04:02:34.341Z,17.54
2022-12-25T04:03:05.943Z,17.54
2022-12-25T04:03:37.435Z,17.54
2022-12-25T04:04:08.867Z,17.54
2022-12-25T04:04:40.668Z,17.53
2022-12-25T04:05:12.093Z,17.53
2022-12-25T04:05:43.502Z,17.53
2022-12-25T04:06:14.915Z,17.52
2022-12-25T04:06:46.391Z,17.52
2022-12-25T04:07:17.799Z,17.53
2022-12-25T04:07:49.206Z,17.51
2022-12-25T04:08:20.615Z,17.52
2022-12-25T04:08:52.051Z,17.52
2022-12-25T04:09:23.479Z,17.52
2022-12-25T04:09:54.873Z,17.52
2022-12-25T04:10:26.293Z,17.52
2022-12-25T04:10:57.730Z,17.52
2022-12-25T04:11:29.143Z,17.52
2022-12-25T04:12:02.910Z,17.51
2022-12-25T04:12:34.716Z,17.50
2022-12-25T04:13:06.122Z,17.51
2022-12-25T04:13:37.535Z,17.51
2022-12-25T04:14:08.938Z,17.51
2022-12-25T04:14:40.358Z,17.50
2022-12-25T04:15:11.783Z,17.50
2022-12-25T04:15:43.239Z,17.50
2022-12-25T04:16:14.716Z,17.50
2022-12-25T04:16:46.222Z,17.49
2022-12-25T04:17:17.684Z,17.49
2022-12-25T04:17:49.077Z,17.48
2022-12-25T04:18:20.473Z,17.48
2022-12-25T04:18:51.881Z,17.48
2022-12-25T04:19:23.316Z,17.47
2022-12-25T04:19:54.718Z,17.47
2022-12-25T04:20:26.120Z,17.46
2022-12-25T04:20:57.524Z,17.47
2022-12-25T04:21:28.919Z,17.46
2022-12-25T04:22:00.436Z,17.46
2022-12-25T04:22:31.942Z,17.46
2022-12-25T04:23:03.357Z,17.45
2022-12-25T04:23:34.764Z,17.46
2022-12-25T04:24:06.226Z,17.45
2022-12-25T04:24:37.650Z,17.43
2022-12-25T04:25:09.071Z,17.44
2022-12-25T04:25:40.506Z,17.43
2022-12-25T04:26:11.905Z,17.43
2022-12-25T04:26:43.312Z,17.41
2022-12-25T04:27:14.725Z,17.43
2022-12-25T04:27:46.238Z,17.42
2022-12-25T04:28:17.634Z,17.42
2022-12-25T04:28:49.038Z,17.41
2022-12-25T04:29:20.465Z,17.42
2022-12-25T04:29:51.905Z,17.42
2022-12-25T04:30:23.309Z,17.42
2022-12-25T04:30:54.740Z,17.42
2022-12-25T04:31:26.246Z,17.42
2022-12-25T04:31:57.723Z,17.42
2022-12-25T04:32:29.139Z,17.40
2022-12-25T04:33:00.594Z,17.40
2022-12-25T04:33:31.991Z,17.40
2022-12-25T04:34:03.410Z,17.40
2022-12-25T04:34:34.823Z,17.41
2022-12-25T04:35:06.214Z,17.41
2022-12-25T04:35:37.616Z,17.41
2022-12-25T04:36:09.058Z,17.40
2022-12-25T04:36:40.495Z,17.40
2022-12-25T04:37:11.914Z,17.40
2022-12-25T04:37:43.327Z,17.39
2022-12-25T04:38:14.844Z,17.38
2022-12-25T04:38:46.254Z,17.38
2022-12-25T04:39:17.656Z,17.38
2022-12-25T04:39:49.071Z,17.38
2022-12-25T04:40:20.506Z,17.36
2022-12-25T04:40:51.893Z,17.38
2022-12-25T04:41:23.294Z,17.36
2022-12-25T04:41:54.739Z,17.36
2022-12-25T04:42:26.135Z,17.36
2022-12-25T04:42:57.522Z,17.36
2022-12-25T04:43:28.979Z,17.35
2022-12-25T04:44:00.395Z,17.37
2022-12-25T04:44:31.798Z,17.35
2022-12-25T04:45:03.216Z,17.34
2022-12-25T04:45:34.625Z,17.34
2022-12-25T04:46:06.057Z,17.34
2022-12-25T04:46:37.535Z,17.33
2022-12-25T04:47:11.511Z,17.33
2022-12-25T04:47:43.298Z,17.32
2022-12-25T04:48:14.714Z,17.33
2022-12-25T04:48:46.161Z,17.32
2022-12-25T04:49:17.561Z,17.31
2022-12-25T04:49:48.978Z,17.32
2022-12-25T04:50:20.397Z,17.32
2022-12-25T04:50:51.804Z,17.32
2022-12-25T04:51:23.244Z,17.32
2022-12-25T04:51:54.653Z,17.32
2022-12-25T04:52:26.055Z,17.32
2022-12-25T04:52:57.466Z,17.32
2022-12-25T04:53:28.870Z,17.30
2022-12-25T04:54:00.399Z,17.31
2022-12-25T04:54:31.809Z,17.29
2022-12-25T04:55:03.204Z,17.29
2022-12-25T04:55:34.621Z,17.28
2022-12-25T04:56:06.023Z,17.29
2022-12-25T04:56:43.458Z,17.30
2022-12-25T04:57:17.094Z,17.28
2022-12-25T04:57:48.505Z,17.28
2022-12-25T04:58:19.900Z,17.29
2022-12-25T04:58:51.458Z,17.28
2022-12-25T04:59:22.865Z,17.29
2022-12-25T04:59:54.255Z,17.26
2022-12-25T05:00:25.683Z,17.28
2022-12-25T05:00:57.098Z,17.27
2022-12-25T05:01:28.570Z,17.27
2022-12-25T05:02:00.229Z,17.25
2022-12-25T05:02:31.809Z,17.26
2022-12-25T05:03:03.468Z,17.26
2022-12-25T05:03:35.028Z,17.26
2022-12-25T05:04:06.622Z,17.26
2022-12-25T05:04:38.031Z,17.27
2022-12-25T05:05:09.429Z,17.25
2022-12-25T05:05:40.829Z,17.24
2022-12-25T05:06:12.219Z,17.24
2022-12-25T05:06:43.612Z,17.25
2022-12-25T05:07:15.017Z,17.24
2022-12-25T05:07:46.438Z,17.24
2022-12-25T05:08:17.841Z,17.24
2022-12-25T05:08:49.306Z,17.23
2022-12-25T05:09:20.774Z,17.23
2022-12-25T05:09:52.209Z,17.23
2022-12-25T05:10:23.606Z,17.22
2022-12-25T05:10:55.003Z,17.23
2022-12-25T05:11:26.397Z,17.23
2022-12-25T05:11:57.801Z,17.22
2022-12-25T05:12:29.189Z,17.22
2022-12-25T05:13:00.607Z,17.22
2022-12-25T05:13:32.006Z,17.22
2022-12-25T05:14:03.582Z,17.21
2022-12-25T05:14:35.234Z,17.22
2022-12-25T05:15:06.655Z,17.22
2022-12-25T05:15:38.096Z,17.22
2022-12-25T05:16:09.585Z,17.21
2022-12-25T05:16:41.037Z,17.21
2022-12-25T05:17:12.450Z,17.21
2022-12-25T05:17:43.857Z,17.20
2022-12-25T05:18:15.250Z,17.21
2022-12-25T05:18:46.679Z,17.21
2022-12-25T05:19:18.075Z,17.20
2022-12-25T05:19:49.649Z,17.21
2022-12-25T05:20:21.047Z,17.20
2022-12-25T05:20:52.460Z,17.21
2022-12-25T05:21:23.851Z,17.19
2022-12-25T05:21:55.264Z,17.19
2022-12-25T05:22:26.669Z,17.19
2022-12-25T05:22:58.093Z,17.19
2022-12-25T05:23:29.483Z,17.19
2022-12-25T05:24:00.888Z,17.20
2022-12-25T05:24:32.300Z,17.18
2022-12-25T05:25:03.769Z,17.18
2022-12-25T05:25:35.157Z,17.17
2022-12-25T05:26:06.569Z,17.16
2022-12-25T05:26:37.973Z,17.16
2022-12-25T05:27:09.379Z,17.14
2022-12-25T05:27:40.773Z,17.15
2022-12-25T05:28:12.162Z,17.16
2022-12-25T05:28:43.552Z,17.16
2022-12-25T05:29:14.970Z,17.16
2022-12-25T05:29:46.386Z,17.14
2022-12-25T05:30:17.843Z,17.15
2022-12-25T05:30:49.310Z,17.15
2022-12-25T05:31:20.869Z,17.14
2022-12-25T05:31:52.333Z,17.13
2022-12-25T05:32:23.752Z,17.14
2022-12-25T05:32:55.152Z,17.13
2022-12-25T05:33:26.556Z,17.14
2022-12-25T05:33:57.963Z,17.14
2022-12-25T05:34:29.372Z,17.15
2022-12-25T05:35:00.798Z,17.15
2022-12-25T05:35:32.289Z,17.13
2022-12-25T05:36:03.713Z,17.14
2022-12-25T05:36:35.108Z,17.14
2022-12-25T05:37:06.528Z,17.14
2022-12-25T05:37:37.942Z,17.16
2022-12-25T05:38:09.362Z,17.15
2022-12-25T05:38:40.771Z,17.15
2022-12-25T05:39:12.186Z,17.15
2022-12-25T05:39:43.600Z,17.16
2022-12-25T05:40:15.042Z,17.16
2022-12-25T05:40:46.498Z,17.16
2022-12-25T05:41:17.906Z,17.17
2022-12-25T05:41:49.342Z,17.18
2022-12-25T05:42:20.757Z,17.17
2022-12-25T05:42:52.156Z,17.17
2022-12-25T05:43:23.579Z,17.17
2022-12-25T05:43:54.982Z,17.17
2022-12-25T05:44:26.386Z,17.17
2022-12-25T05:44:57.792Z,17.18
2022-12-25T05:45:29.194Z,17.18
2022-12-25T05:46:00.731Z,17.18
2022-12-25T05:46:32.200Z,17.19
2022-12-25T05:47:03.681Z,17.19
2022-12-25T05:47:35.145Z,17.19
2022-12-25T05:48:06.554Z,17.20
2022-12-25T05:48:37.951Z,17.20
2022-12-25T05:49:09.364Z,17.20
2022-12-25T05:49:40.770Z,17.20
2022-12-25T05:50:12.171Z,17.21
2022-12-25T05:50:43.587Z,17.20
2022-12-25T05:51:15.108Z,17.20
2022-12-25T05:51:46.534Z,17.22
2022-12-25T05:52:17.930Z,17.22
2022-12-25T05:52:49.329Z,17.22
2022-12-25T05:53:20.739Z,17.23
2022-12-25T05:53:52.135Z,17.23
2022-12-25T05:54:23.541Z,17.23
2022-12-25T05:54:54.954Z,17.23
2022-12-25T05:55:26.351Z,17.24
2022-12-25T05:55:57.749Z,17.23
2022-12-25T05:56:29.274Z,17.24
2022-12-25T05:57:00.746Z,17.24
2022-12-25T05:57:32.169Z,17.25
2022-12-25T05:58:03.574Z,17.25
2022-12-25T05:58:34.964Z,17.25
2022-12-25T05:59:06.387Z,17.26
2022-12-25T05:59:37.784Z,17.25
2022-12-25T06:00:09.259Z,17.25
2022-12-25T06:00:40.673Z,17.26
2022-12-25T06:01:12.137Z,17.26
2022-12-25T06:01:43.728Z,17.27
2022-12-25T06:02:15.364Z,17.25
2022-12-25T06:02:47.009Z,17.26
2022-12-25T06:03:18.588Z,17.27
2022-12-25T06:03:50.168Z,17.27
2022-12-25T06:04:21.643Z,17.27
2022-12-25T06:04:53.062Z,17.27
2022-12-25T06:05:24.450Z,17.27
2022-12-25T06:05:55.903Z,17.27
2022-12-25T06:06:27.326Z,17.28
2022-12-25T06:06:58.797Z,17.28
2022-12-25T06:07:30.206Z,17.28
2022-12-25T06:08:01.639Z,17.28
2022-12-25T06:08:33.066Z,17.28
2022-12-25T06:09:04.469Z,17.28
2022-12-25T06:09:35.873Z,17.30
2022-12-25T06:10:07.266Z,17.29
2022-12-25T06:10:38.682Z,17.28
2022-12-25T06:11:10.079Z,17.29
2022-12-25T06:11:41.499Z,17.30
2022-12-25T06:12:13.012Z,17.29
2022-12-25T06:12:44.448Z,17.29
2022-12-25T06:13:15.869Z,17.30
2022-12-25T06:13:47.291Z,17.29
2022-12-25T06:14:18.742Z,17.30
2022-12-25T06:14:50.166Z,17.29
2022-12-25T06:15:21.555Z,17.29
2022-12-25T06:15:53.026Z,17.29
2022-12-25T06:16:24.546Z,17.29
2022-12-25T06:16:56.040Z,17.29
2022-12-25T06:17:27.659Z,17.29
2022-12-25T06:17:59.076Z,17.29
2022-12-25T06:18:30.485Z,17.29
2022-12-25T06:19:01.882Z,17.29
2022-12-25T06:19:33.294Z,17.29
2022-12-25T06:20:04.717Z,17.30
2022-12-25T06:20:36.150Z,17.29
2022-12-25T06:21:07.556Z,17.29
2022-12-25T06:21:38.959Z,17.29
2022-12-25T06:22:10.362Z,17.29
2022-12-25T06:22:42.023Z,17.29
2022-12-25T06:23:13.745Z,17.29
2022-12-25T06:23:45.280Z,17.30
2022-12-25T06:24:21.230Z,17.29
2022-12-25T06:24:53.054Z,17.29
2022-12-25T06:25:24.591Z,17.29
2022-12-25T06:25:56.007Z,17.29
2022-12-25T06:26:27.421Z,17.28
2022-12-25T06:26:58.818Z,17.27
2022-12-25T06:27:30.227Z,17.28
2022-12-25T06:28:01.707Z,17.29
2022-12-25T06:28:33.122Z,17.28
2022-12-25T06:29:04.508Z,17.28
2022-12-25T06:29:35.898Z,17.29
2022-12-25T06:30:07.304Z,17.29
2022-12-25T06:30:38.703Z,17.29
2022-12-25T06:31:10.189Z,17.29
2022-12-25T06:31:41.692Z,17.29
2022-12-25T06:32:13.115Z,17.29
2022-12-25T06:32:44.521Z,17.28
2022-12-25T06:33:15.963Z,17.28
2022-12-25T06:33:47.417Z,17.28
2022-12-25T06:34:18.893Z,17.27
2022-12-25T06:34:50.283Z,17.27
2022-12-25T06:35:21.696Z,17.27
2022-12-25T06:35:53.099Z,17.26
2022-12-25T06:36:24.519Z,17.27
2022-12-25T06:36:55.914Z,17.28
2022-12-25T06:37:27.305Z,17.27
2022-12-25T06:37:58.737Z,17.28
2022-12-25T06:38:30.327Z,17.27
2022-12-25T06:39:01.737Z,17.27
2022-12-25T06:39:33.154Z,17.27
2022-12-25T06:40:04.557Z,17.27
2022-12-25T06:40:35.967Z,17.26
2022-12-25T06:41:07.370Z,17.26
2022-12-25T06:41:38.787Z,17.26
2022-12-25T06:42:10.181Z,17.27
2022-12-25T06:42:41.578Z,17.27
2022-12-25T06:43:12.994Z,17.27
2022-12-25T06:43:44.422Z,17.26
2022-12-25T06:44:16.013Z,17.27
2022-12-25T06:44:47.417Z,17.26
2022-12-25T06:45:18.837Z,17.26
2022-12-25T06:45:50.296Z,17.26